NCAR-RAP Real-Time Weather Data

Output produced by METARs form (10 April 2020  07:03 UTC)
found at http://weather.rap.ucar.edu/surface/
 
KCAO 100655Z AUTO 00000KT 10SM OVC046 06/00 A3015 RMK AO2 SLP184 T00560000 401720028
KCAO 100555Z AUTO 09006KT 10SM SCT038 BKN050 06/01 A3014 RMK AO2 SLP183 60000 T00560006 10150 20056 50008
KCAO 100455Z AUTO 09006KT 10SM SCT041 BKN080 07/01 A3014 RMK AO2 LTG DSNT N AND NE SLP186 T00720011
KCAO 100355Z AUTO 10005KT 10SM SCT043 BKN095 OVC110 09/02 A3014 RMK AO2 RAB34E48 SLP187 P0000 T00940022
KCAO 100255Z AUTO 10010KT 10SM BKN095 OVC110 10/02 A3011 RMK AO2 SLP178 T01000022 53024
KCAO 100155Z AUTO 09007KT 10SM FEW120 10/02 A3006 RMK AO2 SLP166 T01000022
KCAO 100055Z AUTO 11011KT 10SM CLR 13/03 A3005 RMK AO2 SLP155 T01280028
KCAO 092355Z AUTO 11011KT 10SM CLR 15/03 A3003 RMK AO2 SLP145 T01500028 10172 20117 55005
KCAO 092255Z AUTO 12010KT 10SM CLR 16/03 A3002 RMK AO2 SLP135 T01610028
KCAO 092155Z AUTO 11009G18KT 10SM CLR 16/02 A3003 RMK AO2 SLP138 T01610022
KCAO 092055Z AUTO 10009G20KT 080V140 10SM CLR 16/02 A3004 RMK AO2 SLP135 T01610022 58021
KCAO 091955Z AUTO 13007G17KT 10SM CLR 16/02 A3008 RMK AO2 SLP149 T01610022
KCAO 091855Z AUTO 12009G15KT 10SM CLR 14/01 A3010 RMK AO2 SLP160 T01390011
KCAO 091755Z AUTO 06008G16KT 10SM CLR 13/01 A3012 RMK AO2 SLP167 T01280011 10128 20028 58010
KCAO 091655Z AUTO 05010KT 10SM CLR 11/01 A3014 RMK AO2 SLP179 T01060011
KCAO 091555Z AUTO 03010KT 10SM CLR 08/01 A3015 RMK AO2 SLP184 T00830006
KCAO 091455Z AUTO 03011G18KT 10SM FEW017 07/00 A3015 RMK AO2 SLP186 T00670000 51025
KCAO 091355Z AUTO 02013KT 10SM CLR 04/M01 A3014 RMK AO2 SLP182 T00441006
KCAO 091255Z AUTO 02013KT 10SM CLR 03/00 A3011 RMK AO2 SLP167 T00330000
KCAO 091155Z AUTO 04011KT 10SM CLR 04/M01 A3007 RMK AO2 SLP145 T00391006 10117 20039 53007
KCAO 091055Z AUTO 05009KT 10SM CLR 07/M03 A3005 RMK AO2 SLP129 T00671028
KCAO 090955Z AUTO 07005KT 10SM CLR 07/M04 A3004 RMK AO2 SLP128 T00671039